createdAt,value
2018-07-15T00:01:41.560Z,1016.8
2018-07-15T00:06:41.553Z,1016.9
2018-07-15T00:11:41.564Z,1016.9
2018-07-15T00:16:41.566Z,1016.8
2018-07-15T00:21:41.564Z,1016.8
2018-07-15T00:26:53.695Z,1016.8
2018-07-15T00:31:53.632Z,1017
2018-07-15T00:36:53.562Z,1016.8
2018-07-15T00:41:53.606Z,1016.9
2018-07-15T00:46:53.410Z,1016.9
2018-07-15T00:51:53.444Z,1016.9
2018-07-15T00:56:53.411Z,1016.9
2018-07-15T01:01:53.425Z,1016.8
2018-07-15T01:06:53.437Z,1016.8
2018-07-15T01:12:05.561Z,1016.8
2018-07-15T01:17:05.285Z,1016.7
2018-07-15T01:22:05.274Z,1016.7
2018-07-15T01:27:05.333Z,1016.7
2018-07-15T01:32:05.313Z,1016.7
2018-07-15T01:37:05.312Z,1016.7
2018-07-15T01:42:05.304Z,1016.6
2018-07-15T01:47:05.309Z,1016.6
2018-07-15T01:52:05.442Z,1016.6
2018-07-15T01:57:17.668Z,1016.5
2018-07-15T02:02:17.385Z,1016.5
2018-07-15T02:07:17.596Z,1016.5
2018-07-15T02:12:17.417Z,1016.6
2018-07-15T02:17:17.625Z,1016.5
2018-07-15T02:22:17.546Z,1016.6
2018-07-15T02:27:17.553Z,1016.6
2018-07-15T02:32:17.415Z,1016.5
2018-07-15T02:37:17.424Z,1016.5
2018-07-15T02:42:30.404Z,1016.5
2018-07-15T02:47:30.322Z,1016.5
2018-07-15T02:52:30.107Z,1016.6
2018-07-15T02:57:30.101Z,1016.6
2018-07-15T03:02:30.429Z,1016.7
2018-07-15T03:07:30.094Z,1016.7
2018-07-15T03:12:30.129Z,1016.7
2018-07-15T03:17:32.383Z,1016.6
2018-07-15T03:22:32.393Z,1016.7
2018-07-15T03:27:42.724Z,1016.7
2018-07-15T03:32:42.403Z,1016.7
2018-07-15T03:37:42.530Z,1016.7
2018-07-15T03:42:42.388Z,1016.8
2018-07-15T03:47:42.763Z,1016.7
2018-07-15T03:52:42.625Z,1016.7
2018-07-15T03:57:42.411Z,1016.7
2018-07-15T04:02:42.946Z,1016.6
2018-07-15T04:07:42.676Z,1016.7
2018-07-15T04:12:54.829Z,1016.7
2018-07-15T04:17:54.515Z,1016.6
2018-07-15T04:22:54.702Z,1016.5
2018-07-15T04:27:54.571Z,1016.5
2018-07-15T04:32:54.565Z,1016.4
2018-07-15T04:37:54.884Z,1016.4
2018-07-15T04:42:54.595Z,1016.5
2018-07-15T04:47:56.533Z,1016.3
2018-07-15T04:52:56.280Z,1016.4
2018-07-15T04:58:06.789Z,1016.3
2018-07-15T05:03:06.618Z,1016.4
2018-07-15T05:08:06.494Z,1016.2
2018-07-15T05:13:06.610Z,1016.2
2018-07-15T05:18:06.537Z,1016.2
2018-07-15T05:23:06.460Z,1016.1
2018-07-15T05:28:06.469Z,1016.1
2018-07-15T05:33:06.478Z,1016.1
2018-07-15T05:38:06.481Z,1016
2018-07-15T05:43:06.522Z,1016
2018-07-15T05:48:06.649Z,1016
2018-07-15T05:53:06.668Z,1016.1
2018-07-15T05:58:06.965Z,1016
2018-07-15T06:03:06.551Z,1015.9
2018-07-15T06:08:18.561Z,1015.8
2018-07-15T06:13:18.247Z,1015.8
2018-07-15T06:18:18.547Z,1015.8
2018-07-15T06:23:18.480Z,1015.8
2018-07-15T06:28:18.326Z,1015.7
2018-07-15T06:33:18.615Z,1015.7
2018-07-15T06:38:18.309Z,1015.6
2018-07-15T06:43:18.721Z,1015.6
2018-07-15T06:48:18.418Z,1015.5
2018-07-15T06:53:32.156Z,1015.4
2018-07-15T06:58:31.864Z,1015.5
2018-07-15T07:03:31.855Z,1015.5
2018-07-15T07:08:31.856Z,1015.5
2018-07-15T07:13:31.833Z,1015.3
2018-07-15T07:18:31.848Z,1015.4
2018-07-15T07:23:31.837Z,1015.2
2018-07-15T07:28:31.933Z,1015.1
2018-07-15T07:33:32.088Z,1015.2
2018-07-15T07:38:44.951Z,1015.1
2018-07-15T07:43:44.573Z,1015.1
2018-07-15T07:48:44.422Z,1015.1
2018-07-15T07:53:44.493Z,1015.2
2018-07-15T07:58:44.440Z,1015.2
2018-07-15T08:03:44.441Z,1015.2
2018-07-15T08:08:44.773Z,1015.3
2018-07-15T08:13:45.548Z,1015.2
2018-07-15T08:18:45.251Z,1015.3
2018-07-15T08:23:58.817Z,1015.2
2018-07-15T08:28:56.995Z,1015.1
2018-07-15T08:33:57.085Z,1015.1
2018-07-15T08:38:57.162Z,1015
2018-07-15T08:43:57.214Z,1015
2018-07-15T08:48:57.063Z,1015
2018-07-15T08:53:57.299Z,1014.9
2018-07-15T08:58:59.219Z,1014.9
2018-07-15T09:03:58.925Z,1014.8
2018-07-15T09:09:12.993Z,1014.7
2018-07-15T09:14:11.195Z,1014.6
2018-07-15T09:19:11.396Z,1014.7
2018-07-15T09:24:11.246Z,1014.6
2018-07-15T09:29:11.369Z,1014.5
2018-07-15T09:34:11.244Z,1014.5
2018-07-15T09:39:11.408Z,1014.4
2018-07-15T09:44:11.573Z,1014.4
2018-07-15T09:49:11.277Z,1014.4
2018-07-15T09:54:24.027Z,1014.3
2018-07-15T09:59:23.741Z,1014.3
2018-07-15T10:04:23.766Z,1014.1
2018-07-15T10:09:23.886Z,1014.1
2018-07-15T10:14:23.828Z,1014.1
2018-07-15T10:19:24.215Z,1013.9
2018-07-15T10:24:23.924Z,1013.8
2018-07-15T10:29:23.938Z,1013.6
2018-07-15T10:34:23.931Z,1013.6
2018-07-15T10:39:23.931Z,1013.5
2018-07-15T10:44:24.198Z,1013.6
2018-07-15T10:49:24.037Z,1013.4
2018-07-15T10:54:24.085Z,1013.3
2018-07-15T10:59:23.954Z,1013.3
2018-07-15T11:04:35.774Z,1013.1
2018-07-15T11:09:35.732Z,1013.2
2018-07-15T11:14:35.747Z,1013.1
2018-07-15T11:19:35.498Z,1013
2018-07-15T11:24:35.498Z,1013.1
2018-07-15T11:29:35.489Z,1012.8
2018-07-15T11:34:35.432Z,1012.8
2018-07-15T11:39:35.557Z,1012.7
2018-07-15T11:44:35.707Z,1012.6
2018-07-15T11:49:47.489Z,1012.5
2018-07-15T11:54:47.300Z,1012.5
2018-07-15T11:59:47.228Z,1012.5
2018-07-15T12:04:47.181Z,1012.5
2018-07-15T12:09:47.327Z,1012.4
2018-07-15T12:14:47.399Z,1012.4
2018-07-15T12:19:47.225Z,1012.3
2018-07-15T12:24:48.592Z,1012.3
2018-07-15T12:29:48.685Z,1012.4
2018-07-15T12:35:00.673Z,1012.4
2018-07-15T12:40:00.150Z,1012.4
2018-07-15T12:45:00.497Z,1012.4
2018-07-15T12:50:00.178Z,1012.4
2018-07-15T12:55:00.186Z,1012.2
2018-07-15T13:00:00.300Z,1012.2
2018-07-15T13:05:00.333Z,1012.4
2018-07-15T13:10:00.880Z,1012.3
2018-07-15T13:15:00.798Z,1012.2
2018-07-15T13:20:13.368Z,1012.3
2018-07-15T13:25:14.147Z,1012.6
2018-07-15T13:30:14.603Z,1012.8
2018-07-15T13:35:14.611Z,1012.9
2018-07-15T13:40:14.610Z,1012.8
2018-07-15T13:45:14.659Z,1012.8
2018-07-15T13:50:14.631Z,1013
2018-07-15T13:55:14.637Z,1012.9
2018-07-15T14:00:14.687Z,1012.8
2018-07-15T14:05:25.937Z,1012.8
2018-07-15T14:10:25.648Z,1012.6
2018-07-15T14:15:25.682Z,1012.6
2018-07-15T14:20:25.935Z,1012.6
2018-07-15T14:25:25.613Z,1012.7
2018-07-15T14:30:25.699Z,1012.6
2018-07-15T14:35:25.827Z,1012.7
2018-07-15T14:40:29.373Z,1012.6
2018-07-15T14:45:29.411Z,1012.5
2018-07-15T14:50:39.505Z,1012.4
2018-07-15T14:55:39.368Z,1012.3
2018-07-15T15:00:39.243Z,1012.2
2018-07-15T15:05:39.448Z,1012.4
2018-07-15T15:10:39.291Z,1012.3
2018-07-15T15:15:39.286Z,1012.4
2018-07-15T15:20:39.278Z,1012.3
2018-07-15T15:25:42.749Z,1012.4
2018-07-15T15:30:42.066Z,1012.5
2018-07-15T15:35:54.952Z,1012.5
2018-07-15T15:40:54.657Z,1012.5
2018-07-15T15:45:54.792Z,1012.6
2018-07-15T15:50:54.632Z,1012.6
2018-07-15T15:55:54.640Z,1012.5
2018-07-15T16:00:54.882Z,1012.4
2018-07-15T16:05:54.652Z,1012.4
2018-07-15T16:10:55.165Z,1012.4
2018-07-15T16:15:54.884Z,1012.4
2018-07-15T16:21:07.783Z,1012.5
2018-07-15T16:26:07.606Z,1012.4
2018-07-15T16:31:07.699Z,1012.4
2018-07-15T16:36:07.541Z,1012.3
2018-07-15T16:41:07.523Z,1012.2
2018-07-15T16:46:07.517Z,1012.3
2018-07-15T16:51:07.564Z,1012.3
2018-07-15T16:56:09.071Z,1012.2
2018-07-15T17:01:08.667Z,1012.3
2018-07-15T17:06:19.960Z,1012.3
2018-07-15T17:11:19.651Z,1012.4
2018-07-15T17:16:19.634Z,1012.3
2018-07-15T17:21:19.683Z,1012.4
2018-07-15T17:26:19.691Z,1012.4
2018-07-15T17:31:19.621Z,1012.5
2018-07-15T17:36:19.812Z,1012.5
2018-07-15T17:41:21.502Z,1012.6
2018-07-15T17:46:21.709Z,1012.6
2018-07-15T17:51:35.397Z,1012.5
2018-07-15T17:56:35.236Z,1012.6
2018-07-15T18:01:35.278Z,1012.7
2018-07-15T18:06:35.273Z,1012.7
2018-07-15T18:11:35.115Z,1012.8
2018-07-15T18:16:35.119Z,1012.7
2018-07-15T18:21:35.112Z,1012.8
2018-07-15T18:26:35.548Z,1012.9
2018-07-15T18:31:35.451Z,1012.9
2018-07-15T18:36:47.858Z,1013
2018-07-15T18:41:47.613Z,1013.2
2018-07-15T18:46:47.594Z,1013.3
2018-07-15T18:51:47.600Z,1013.3
2018-07-15T18:56:47.797Z,1013.5
2018-07-15T19:01:47.610Z,1013.7
2018-07-15T19:06:47.743Z,1013.8
2018-07-15T19:11:48.248Z,1014
2018-07-15T19:16:48.014Z,1014
2018-07-15T19:22:01.175Z,1014.2
2018-07-15T19:27:00.946Z,1014.3
2018-07-15T19:32:01.037Z,1014.2
2018-07-15T19:37:01.051Z,1014.2
2018-07-15T19:42:00.909Z,1014.2
2018-07-15T19:47:00.895Z,1014.3
2018-07-15T19:52:01.018Z,1014.3
2018-07-15T19:57:01.719Z,1014.3
2018-07-15T20:02:01.408Z,1014.3
2018-07-15T20:07:14.126Z,1014.2
2018-07-15T20:12:13.849Z,1014.2
2018-07-15T20:17:13.934Z,1014.2
2018-07-15T20:22:14.150Z,1014.1
2018-07-15T20:27:13.987Z,1014.1
2018-07-15T20:32:13.922Z,1014.2
2018-07-15T20:37:13.885Z,1014.1
2018-07-15T20:42:13.930Z,1014
2018-07-15T20:47:14.035Z,1014
2018-07-15T20:52:14.131Z,1014
2018-07-15T20:57:14.111Z,1014
2018-07-15T21:02:14.040Z,1013.8
2018-07-15T21:07:14.222Z,1014
2018-07-15T21:12:14.203Z,1013.9
2018-07-15T21:17:27.294Z,1013.9
2018-07-15T21:22:27.013Z,1013.9
2018-07-15T21:27:27.203Z,1014
2018-07-15T21:32:27.015Z,1014
2018-07-15T21:37:27.157Z,1014.1
2018-07-15T21:42:27.040Z,1014.1
2018-07-15T21:47:27.128Z,1014.1
2018-07-15T21:52:27.702Z,1014.3
2018-07-15T21:57:27.424Z,1014.3
2018-07-15T22:02:40.441Z,1014.4
2018-07-15T22:07:40.380Z,1014.5
2018-07-15T22:12:40.420Z,1014.6
2018-07-15T22:17:40.210Z,1014.6
2018-07-15T22:22:40.417Z,1014.7
2018-07-15T22:27:40.361Z,1014.7
2018-07-15T22:32:40.372Z,1014.8
2018-07-15T22:37:40.305Z,1014.7
2018-07-15T22:42:40.513Z,1014.7
2018-07-15T22:47:40.565Z,1014.7
2018-07-15T22:52:40.336Z,1014.7
2018-07-15T22:57:40.500Z,1014.7
2018-07-15T23:02:41.499Z,1014.9
2018-07-15T23:07:41.447Z,1014.9
2018-07-15T23:12:54.089Z,1014.8
2018-07-15T23:17:53.799Z,1014.8
2018-07-15T23:22:53.795Z,1014.8
2018-07-15T23:27:53.976Z,1014.8
2018-07-15T23:32:53.766Z,1014.8
2018-07-15T23:37:53.903Z,1014.8
2018-07-15T23:42:53.760Z,1014.9
2018-07-15T23:47:55.105Z,1014.9
2018-07-15T23:52:54.835Z,1015
2018-07-15T23:58:07.105Z,1014.9
